Time;durP1;ratioP1;P1;durP2;ratioP2;P2;SDS_P1;SDS_P2;PMS_P1;PMS_P2;Temp;Humidity;BMP_temperature;BMP_pressure;BME280_temperature;BME280_humidity;BME280_pressure;Samples;Min_cycle;Max_cycle;Signal;HPM_P1;HPM_P2
2024/01/20 00:01:39;;;;;;;0.45;0.35;;;;;;;5.22;48.64;101284.47;4896510;29;20408;-89
2024/01/20 00:04:04;;;;;;;0.57;0.50;;;;;;;5.14;48.28;101290.28;4906685;29;20458;-90
2024/01/20 00:06:30;;;;;;;1.30;0.50;;;;;;;4.97;48.80;101314.44;4912925;29;20406;-87
2024/01/20 00:08:56;;;;;;;0.30;0.30;;;;;;;5.00;48.64;101300.22;4913559;29;20437;-89
2024/01/20 00:11:22;;;;;;;1.20;0.63;;;;;;;5.15;48.03;101310.38;4895035;29;20421;-90
2024/01/20 00:13:47;;;;;;;0.20;0.20;;;;;;;5.43;47.81;101315.25;4895069;29;20497;-90
2024/01/20 00:16:13;;;;;;;0.30;0.30;;;;;;;5.10;47.81;101307.28;4896336;29;20492;-89
2024/01/20 00:18:38;;;;;;;0.20;0.20;;;;;;;4.95;48.22;101330.31;4897453;29;20914;-90
2024/01/20 00:21:04;;;;;;;0.30;0.30;;;;;;;4.89;48.19;101337.84;4896263;29;20402;-90
2024/01/20 00:23:32;;;;;;;0.33;0.33;;;;;;;5.03;48.59;101340.22;4904273;29;21318;-89
2024/01/20 00:25:58;;;;;;;0.85;0.60;;;;;;;5.26;47.86;101345.50;4911477;29;20458;-87
2024/01/20 00:28:23;;;;;;;0.30;0.30;;;;;;;5.35;48.06;101335.09;4917766;29;20418;-89
2024/01/20 00:30:49;;;;;;;0.40;0.33;;;;;;;5.15;48.10;101328.78;4898870;29;20771;-89
2024/01/20 00:33:15;;;;;;;0.20;0.20;;;;;;;5.41;49.03;101348.72;4912258;29;20413;-89
2024/01/20 00:35:44;;;;;;;0.20;0.20;;;;;;;5.20;48.82;101352.06;4895971;29;20458;-89
2024/01/20 00:38:10;;;;;;;0.20;0.20;;;;;;;5.20;49.80;101364.38;4894215;29;20413;-88
2024/01/20 00:40:35;;;;;;;0.20;0.20;;;;;;;4.91;50.04;101377.94;4894686;29;20402;-90
2024/01/20 00:43:02;;;;;;;0.20;0.20;;;;;;;4.98;49.97;101382.63;4895544;29;20545;-89
2024/01/20 00:45:27;;;;;;;0.20;0.20;;;;;;;5.12;49.59;101391.25;4894179;29;20906;-88
2024/01/20 00:47:53;;;;;;;0.22;0.22;;;;;;;4.85;49.78;101378.44;4898707;29;20414;-88
2024/01/20 00:50:19;;;;;;;0.43;0.43;;;;;;;4.90;50.33;101406.03;4897759;29;20521;-89
2024/01/20 00:52:44;;;;;;;0.40;0.30;;;;;;;4.99;48.92;101412.38;4894255;29;20401;-89
2024/01/20 00:55:10;;;;;;;0.63;0.37;;;;;;;4.91;49.61;101406.84;4893521;29;20398;-89
2024/01/20 00:57:36;;;;;;;0.30;0.30;;;;;;;4.62;49.25;101396.75;4894028;29;20401;-89
2024/01/20 01:00:07;;;;;;;0.40;0.40;;;;;;;4.69;49.38;101405.84;4892360;29;20497;-89
2024/01/20 01:02:33;;;;;;;0.50;0.50;;;;;;;4.59;49.58;101425.84;4892351;29;20489;-90
2024/01/20 01:04:58;;;;;;;1.83;0.88;;;;;;;4.75;49.17;101413.28;4892847;29;20588;-90
2024/01/20 01:07:24;;;;;;;0.40;0.40;;;;;;;5.05;48.99;101401.38;4892111;29;20413;-90
2024/01/20 01:09:50;;;;;;;0.20;0.20;;;;;;;5.06;48.90;101410.94;4893312;29;20429;-89
2024/01/20 01:12:16;;;;;;;0.57;0.57;;;;;;;5.08;48.81;101410.84;4893097;29;20914;-90
2024/01/20 01:14:45;;;;;;;0.73;0.73;;;;;;;5.12;49.03;101422.78;4893212;29;20399;-91
2024/01/20 01:17:10;;;;;;;0.32;0.30;;;;;;;5.16;48.87;101425.03;4892913;29;20410;-89
2024/01/20 01:19:37;;;;;;;0.60;0.60;;;;;;;5.16;48.85;101422.41;4893177;29;20422;-90
2024/01/20 01:22:02;;;;;;;0.30;0.30;;;;;;;5.20;48.49;101419.56;4895317;29;20398;-89
2024/01/20 01:24:28;;;;;;;0.35;0.32;;;;;;;5.21;49.29;101431.75;4896583;29;20394;-90
2024/01/20 01:26:54;;;;;;;0.80;0.60;;;;;;;4.91;49.19;101431.31;4903472;29;20401;-87
2024/01/20 01:29:19;;;;;;;0.30;0.30;;;;;;;4.70;49.88;101433.78;4902038;29;20414;-89
2024/01/20 01:31:45;;;;;;;0.70;0.70;;;;;;;4.58;49.76;101434.69;4898305;29;20402;-89
2024/01/20 01:34:10;;;;;;;0.60;0.30;;;;;;;4.81;49.03;101430.34;4901360;29;20430;-89
2024/01/20 01:36:36;;;;;;;0.25;0.20;;;;;;;4.79;49.25;101446.22;4896438;29;20615;-90
2024/01/20 01:39:02;;;;;;;0.20;0.20;;;;;;;4.95;49.04;101447.69;4893433;29;20405;-89
2024/01/20 01:41:28;;;;;;;0.22;0.22;;;;;;;4.88;48.55;101428.94;4893065;29;20438;-89
2024/01/20 01:43:53;;;;;;;0.30;0.30;;;;;;;4.83;48.76;101422.38;4892217;29;20406;-89
2024/01/20 01:46:20;;;;;;;0.30;0.30;;;;;;;4.86;48.52;101438.75;4893096;29;20473;-88
2024/01/20 01:48:46;;;;;;;0.50;0.50;;;;;;;4.74;48.54;101443.09;4895580;29;20417;-89
2024/01/20 01:51:12;;;;;;;0.90;0.52;;;;;;;4.83;48.11;101440.75;4897662;29;20437;-90
2024/01/20 01:53:40;;;;;;;0.60;0.43;;;;;;;5.01;48.46;101449.03;4897757;29;20418;-88
2024/01/20 01:56:07;;;;;;;0.90;0.43;;;;;;;4.96;48.05;101447.59;4897476;29;21239;-89
2024/01/20 01:58:33;;;;;;;0.30;0.30;;;;;;;5.00;48.13;101447.38;4897127;29;20390;-90
2024/01/20 02:01:00;;;;;;;0.20;0.20;;;;;;;4.94;48.21;101453.91;4896352;29;20418;-90
2024/01/20 02:03:26;;;;;;;0.60;0.60;;;;;;;5.00;48.12;101457.88;4897241;29;20479;-90
2024/01/20 02:05:52;;;;;;;0.40;0.23;;;;;;;5.07;47.85;101446.78;4897653;29;20410;-90
2024/01/20 02:08:20;;;;;;;0.20;0.20;;;;;;;5.12;47.99;101454.31;4902644;29;20429;-90
2024/01/20 02:10:49;;;;;;;0.30;0.30;;;;;;;5.19;47.93;101470.47;4915512;29;20393;-89
2024/01/20 02:13:15;;;;;;;1.90;1.10;;;;;;;5.13;48.07;101467.34;4920464;29;20402;-89
2024/01/20 02:15:41;;;;;;;0.50;0.50;;;;;;;5.08;48.66;101473.91;4898844;29;20382;-90
2024/01/20 02:18:07;;;;;;;0.20;0.20;;;;;;;4.88;48.43;101470.97;4898254;29;20406;-91
2024/01/20 02:20:32;;;;;;;0.40;0.40;;;;;;;5.01;48.62;101478.78;4898549;29;20401;-90
2024/01/20 02:22:58;;;;;;;0.38;0.38;;;;;;;4.93;48.51;101476.75;4899020;29;20398;-91
2024/01/20 02:25:24;;;;;;;0.20;0.20;;;;;;;5.03;48.72;101484.75;4897815;29;20405;-90
2024/01/20 02:27:52;;;;;;;0.32;0.32;;;;;;;5.14;48.54;101497.09;4905530;29;20402;-88
2024/01/20 02:30:18;;;;;;;0.20;0.20;;;;;;;5.00;48.30;101497.28;4916600;29;20402;-91
2024/01/20 02:32:43;;;;;;;0.32;0.32;;;;;;;5.02;48.22;101498.00;4920654;29;20457;-89
2024/01/20 02:35:09;;;;;;;1.20;0.60;;;;;;;4.83;48.29;101509.88;4902798;29;20402;-89
2024/01/20 02:37:35;;;;;;;0.70;0.70;;;;;;;4.90;48.65;101519.00;4897544;29;20533;-90
2024/01/20 02:40:01;;;;;;;0.20;0.20;;;;;;;4.62;49.03;101507.03;4895808;29;20886;-88
2024/01/20 02:42:27;;;;;;;0.30;0.30;;;;;;;4.74;48.51;101505.31;4896609;29;20398;-90
2024/01/20 02:44:55;;;;;;;0.90;0.88;;;;;;;4.60;48.58;101511.56;4898777;29;20417;-90
2024/01/20 02:47:22;;;;;;;0.40;0.40;;;;;;;4.21;49.01;101513.47;4897226;29;20401;-89
2024/01/20 02:49:47;;;;;;;0.70;0.60;;;;;;;4.03;49.29;101523.47;4894253;29;20480;-89
2024/01/20 02:52:13;;;;;;;0.30;0.30;;;;;;;4.13;49.36;101516.63;4895447;29;20865;-88
2024/01/20 02:54:38;;;;;;;0.53;0.50;;;;;;;4.04;49.35;101530.41;4894506;29;20401;-88
2024/01/20 02:57:04;;;;;;;0.30;0.30;;;;;;;4.22;49.13;101520.41;4895015;29;20770;-87
2024/01/20 02:59:30;;;;;;;0.67;0.67;;;;;;;4.39;48.97;101521.81;4893711;29;20485;-89
2024/01/20 03:01:55;;;;;;;0.30;0.30;;;;;;;4.09;49.55;101519.56;4896228;29;20767;-89
2024/01/20 03:04:21;;;;;;;0.37;0.37;;;;;;;4.12;49.12;101514.13;4895459;29;20489;-87
2024/01/20 03:06:50;;;;;;;0.20;0.20;;;;;;;4.06;49.25;101520.63;4895561;29;20855;-88
2024/01/20 03:09:15;;;;;;;0.52;0.52;;;;;;;3.99;49.50;101517.59;4895159;29;20485;-88
2024/01/20 03:11:42;;;;;;;0.20;0.20;;;;;;;3.87;50.05;101520.25;4895313;29;20398;-89
2024/01/20 03:14:09;;;;;;;0.30;0.30;;;;;;;3.94;49.89;101524.97;4895559;29;21027;-90
2024/01/20 03:16:35;;;;;;;0.30;0.30;;;;;;;4.23;49.49;101527.31;4895026;29;20863;-88
2024/01/20 03:19:00;;;;;;;0.47;0.47;;;;;;;4.27;49.13;101528.78;4895208;29;20477;-89
2024/01/20 03:21:26;;;;;;;1.63;1.48;;;;;;;4.35;48.77;101530.88;4895652;29;20496;-89
2024/01/20 03:23:57;;;;;;;0.20;0.20;;;;;;;4.36;48.85;101537.81;4895622;29;20409;-89
2024/01/20 03:26:22;;;;;;;0.20;0.20;;;;;;;4.59;48.93;101531.75;4895533;29;20429;-89
2024/01/20 03:28:48;;;;;;;0.37;0.37;;;;;;;4.24;48.59;101547.38;4895188;29;20794;-90
2024/01/20 03:31:14;;;;;;;0.22;0.22;;;;;;;4.14;49.16;101551.56;4896224;29;20422;-87
2024/01/20 03:33:40;;;;;;;0.20;0.20;;;;;;;4.38;48.88;101557.72;4895331;29;20390;-90
2024/01/20 03:36:05;;;;;;;0.30;0.30;;;;;;;4.39;48.44;101538.41;4879945;29;20527;-88
2024/01/20 03:38:31;;;;;;;0.20;0.20;;;;;;;4.56;48.40;101542.44;4903580;29;20412;-89
2024/01/20 03:40:57;;;;;;;0.40;0.40;;;;;;;4.63;48.49;101542.84;4879212;29;20767;-89
2024/01/20 03:43:22;;;;;;;0.40;0.40;;;;;;;4.61;48.46;101555.25;4879374;29;20400;-89
2024/01/20 03:45:48;;;;;;;0.60;0.60;;;;;;;4.51;48.54;101557.69;4874531;29;20413;-89
2024/01/20 03:48:14;;;;;;;0.80;0.60;;;;;;;4.31;49.11;101572.25;4874641;29;21008;-91
2024/01/20 03:50:39;;;;;;;0.40;0.40;;;;;;;4.51;48.80;101577.88;4874560;29;20400;-89
2024/01/20 03:53:05;;;;;;;0.38;0.38;;;;;;;4.42;48.88;101574.09;4900416;29;20415;-90
2024/01/20 03:55:32;;;;;;;0.40;0.40;;;;;;;4.45;49.21;101567.78;4875544;29;20392;-89
2024/01/20 03:57:58;;;;;;;0.25;0.25;;;;;;;4.65;48.92;101571.63;4875731;29;20427;-89
2024/01/20 04:00:23;;;;;;;0.20;0.20;;;;;;;4.83;48.77;101570.31;4875475;29;20498;-90
2024/01/20 04:02:49;;;;;;;0.30;0.30;;;;;;;4.53;49.32;101563.66;4876442;29;20404;-89
2024/01/20 04:05:15;;;;;;;0.40;0.40;;;;;;;4.55;49.49;101561.78;4875459;29;20404;-89
2024/01/20 04:07:43;;;;;;;0.60;0.55;;;;;;;4.67;49.50;101567.09;4877170;29;20400;-87
2024/01/20 04:10:09;;;;;;;0.30;0.30;;;;;;;4.55;49.38;101558.31;4888833;29;20768;-89
2024/01/20 04:12:39;;;;;;;0.50;0.50;;;;;;;4.67;49.37;101565.31;4882593;29;20965;-91
2024/01/20 04:15:05;;;;;;;0.40;0.40;;;;;;;4.68;49.29;101558.25;4901660;29;20407;-89
2024/01/20 04:17:31;;;;;;;0.22;0.22;;;;;;;4.66;49.13;101555.75;4894072;29;20404;-88
2024/01/20 04:19:57;;;;;;;0.35;0.35;;;;;;;4.71;48.61;101555.44;4900386;29;20413;-89
2024/01/20 04:22:22;;;;;;;0.63;0.40;;;;;;;4.83;48.58;101566.84;4882954;29;20406;-89
2024/01/20 04:24:48;;;;;;;0.30;0.30;;;;;;;4.85;48.51;101571.03;4903188;29;20404;-90
2024/01/20 04:27:14;;;;;;;0.90;0.63;;;;;;;4.92;48.59;101576.69;4886871;29;20420;-90
2024/01/20 04:29:39;;;;;;;1.30;0.60;;;;;;;5.02;48.61;101576.84;4889282;29;20431;-89
2024/01/20 04:32:05;;;;;;;0.30;0.30;;;;;;;5.05;48.21;101582.69;4898087;29;20407;-90
2024/01/20 04:34:34;;;;;;;0.33;0.33;;;;;;;5.10;47.78;101572.69;4905230;29;20408;-90
2024/01/20 04:36:59;;;;;;;0.60;0.60;;;;;;;5.08;48.10;101579.03;4888449;29;20935;-90
2024/01/20 04:39:25;;;;;;;0.30;0.30;;;;;;;4.74;48.29;101571.81;4883152;29;20402;-89
2024/01/20 04:41:51;;;;;;;0.23;0.23;;;;;;;4.86;48.13;101577.09;4881973;29;20845;-90
2024/01/20 04:44:16;;;;;;;0.40;0.40;;;;;;;4.82;48.21;101583.53;4879094;29;20439;-91
2024/01/20 04:46:42;;;;;;;0.30;0.30;;;;;;;4.98;48.10;101600.69;4899196;29;20412;-90
2024/01/20 04:49:10;;;;;;;1.10;0.90;;;;;;;4.89;48.11;101593.50;4889022;29;20417;-89
2024/01/20 04:51:36;;;;;;;0.47;0.47;;;;;;;4.78;48.08;101589.00;4885648;29;20394;-90
2024/01/20 04:54:02;;;;;;;11.20;4.95;;;;;;;4.79;48.04;101588.06;4883894;29;20413;-89
2024/01/20 04:56:27;;;;;;;0.80;0.80;;;;;;;4.69;47.88;101608.06;4884284;29;20402;-90
2024/01/20 04:58:56;;;;;;;0.43;0.43;;;;;;;4.69;47.81;101613.31;4880435;29;20490;-89
2024/01/20 05:01:22;;;;;;;0.50;0.50;;;;;;;4.59;47.92;101617.53;4880787;29;20449;-88
2024/01/20 05:03:50;;;;;;;0.68;0.68;;;;;;;4.55;47.67;101639.72;4871757;29;20797;-90
2024/01/20 05:06:16;;;;;;;0.65;0.50;;;;;;;4.64;47.85;101646.09;4879854;29;20443;-89
2024/01/20 05:08:41;;;;;;;0.50;0.38;;;;;;;4.69;47.58;101660.59;4892460;29;20457;-88
2024/01/20 05:11:07;;;;;;;0.95;0.50;;;;;;;4.54;47.21;101648.56;4885712;29;20820;-89
2024/01/20 05:13:33;;;;;;;0.20;0.20;;;;;;;4.69;47.21;101654.50;4887790;29;20406;-89
2024/01/20 05:15:59;;;;;;;1.08;0.60;;;;;;;4.70;47.44;101666.66;4908572;29;20784;-89
2024/01/20 05:18:25;;;;;;;0.60;0.60;;;;;;;4.66;47.56;101668.66;4892993;29;20395;-88
2024/01/20 05:20:51;;;;;;;0.33;0.33;;;;;;;4.53;47.56;101660.00;4893194;29;20398;-90
2024/01/20 05:23:18;;;;;;;1.10;0.70;;;;;;;4.48;47.63;101657.66;4893315;29;20470;-89
2024/01/20 05:25:44;;;;;;;0.60;0.50;;;;;;;4.64;47.51;101662.69;4893039;29;20858;-88
2024/01/20 05:28:09;;;;;;;0.90;0.80;;;;;;;4.62;47.12;101658.50;4893357;29;21016;-89
2024/01/20 05:30:35;;;;;;;0.30;0.30;;;;;;;4.45;47.39;101667.53;4894509;29;20770;-88
2024/01/20 05:33:00;;;;;;;0.50;0.40;;;;;;;4.55;47.25;101665.97;4895031;29;20394;-88
2024/01/20 05:35:26;;;;;;;0.60;0.60;;;;;;;4.70;47.11;101672.78;4894556;29;20414;-90
2024/01/20 05:37:52;;;;;;;1.00;0.90;;;;;;;4.76;47.02;101679.38;4893554;29;20410;-89
2024/01/20 05:40:17;;;;;;;0.53;0.50;;;;;;;4.68;47.30;101698.31;4893330;29;20524;-88
2024/01/20 05:42:43;;;;;;;1.05;0.70;;;;;;;4.60;47.40;101696.22;4893016;29;20470;-89
2024/01/20 05:45:09;;;;;;;0.60;0.38;;;;;;;4.39;47.18;101682.81;4893596;29;20398;-89
2024/01/20 05:47:38;;;;;;;0.70;0.60;;;;;;;4.33;47.14;101690.25;4893748;29;20406;-89
2024/01/20 05:50:04;;;;;;;0.45;0.35;;;;;;;4.51;47.41;101696.03;4894763;29;20421;-88
2024/01/20 05:52:30;;;;;;;1.10;0.90;;;;;;;4.60;47.18;101693.59;4893064;29;20398;-88
2024/01/20 05:54:58;;;;;;;0.50;0.50;;;;;;;4.59;46.46;101712.94;4892771;29;20398;-88
2024/01/20 05:57:24;;;;;;;0.40;0.40;;;;;;;4.52;46.92;101716.06;4894689;29;20397;-88
2024/01/20 05:59:50;;;;;;;0.70;0.70;;;;;;;4.56;46.26;101714.94;4894674;29;20429;-89
2024/01/20 06:02:16;;;;;;;1.17;0.50;;;;;;;4.69;46.75;101723.63;4896146;29;20398;-89
2024/01/20 06:04:41;;;;;;;1.00;0.55;;;;;;;4.66;47.00;101728.25;4893435;29;20478;-89
2024/01/20 06:07:07;;;;;;;0.25;0.25;;;;;;;4.71;46.70;101731.41;4894269;29;20420;-90
2024/01/20 06:09:33;;;;;;;0.40;0.30;;;;;;;4.73;47.00;101735.59;4894206;29;20429;-88
2024/01/20 06:11:59;;;;;;;0.93;0.88;;;;;;;4.76;46.89;101743.25;4906817;29;20390;-88
2024/01/20 06:14:24;;;;;;;0.35;0.35;;;;;;;4.74;46.63;101742.53;4906836;29;20402;-88
2024/01/20 06:16:53;;;;;;;0.30;0.30;;;;;;;4.74;46.51;101746.97;4914568;29;20410;-91
2024/01/20 06:19:18;;;;;;;0.83;0.60;;;;;;;4.47;46.95;101757.56;4914215;29;20434;-88
2024/01/20 06:21:44;;;;;;;0.90;0.90;;;;;;;4.59;47.23;101759.34;4898999;29;20406;-89
2024/01/20 06:24:11;;;;;;;0.27;0.27;;;;;;;4.48;47.17;101764.47;4893361;29;20439;-88
2024/01/20 06:26:37;;;;;;;0.98;0.88;;;;;;;4.52;46.87;101771.19;4896480;29;20429;-88
2024/01/20 06:29:03;;;;;;;0.60;0.60;;;;;;;4.46;47.08;101774.25;4909357;29;20418;-89
2024/01/20 06:31:28;;;;;;;1.02;0.90;;;;;;;4.65;47.26;101790.44;4917698;29;20401;-89
2024/01/20 06:33:55;;;;;;;0.60;0.60;;;;;;;4.67;47.03;101793.81;4919012;29;20478;-89
2024/01/20 06:36:21;;;;;;;1.73;1.02;;;;;;;4.67;47.12;101788.56;4922675;29;20506;-86
2024/01/20 06:38:50;;;;;;;0.50;0.50;;;;;;;4.48;46.83;101796.81;4916694;29;20441;-88
2024/01/20 06:41:16;;;;;;;0.80;0.80;;;;;;;4.56;46.75;101801.59;4899005;29;20414;-88
2024/01/20 06:43:44;;;;;;;0.20;0.20;;;;;;;4.63;46.61;101813.34;4899659;29;21034;-88
2024/01/20 06:46:10;;;;;;;0.20;0.20;;;;;;;4.53;46.71;101821.00;4903450;29;20414;-88
2024/01/20 06:48:36;;;;;;;0.80;0.80;;;;;;;4.49;46.73;101826.56;4906800;29;20453;-87
2024/01/20 06:51:03;;;;;;;0.35;0.30;;;;;;;4.52;47.25;101842.09;4900277;29;20394;-88
2024/01/20 06:53:30;;;;;;;0.20;0.20;;;;;;;4.07;48.48;101844.19;4897902;29;20398;-88
2024/01/20 06:55:56;;;;;;;0.75;0.38;;;;;;;4.15;48.96;101852.41;4897531;29;20394;-89
2024/01/20 06:58:23;;;;;;;2.00;1.90;;;;;;;4.32;49.03;101857.41;4898447;29;20393;-87
2024/01/20 07:00:49;;;;;;;0.28;0.28;;;;;;;4.11;49.77;101872.78;4897227;29;20422;-89
2024/01/20 07:03:15;;;;;;;0.25;0.25;;;;;;;3.72;52.23;101866.50;4898067;29;20425;-89
2024/01/20 07:05:41;;;;;;;0.50;0.50;;;;;;;3.61;52.85;101875.03;4898115;29;20489;-88
2024/01/20 07:08:08;;;;;;;0.63;0.63;;;;;;;3.61;53.06;101875.03;4885558;29;20518;-90
2024/01/20 07:10:34;;;;;;;0.20;0.20;;;;;;;3.58;53.16;101888.38;4880290;29;20487;-91
2024/01/20 07:13:02;;;;;;;0.60;0.60;;;;;;;3.62;53.21;101889.00;4879703;29;20456;-90
2024/01/20 07:15:29;;;;;;;0.30;0.30;;;;;;;3.64;53.01;101887.97;4880152;29;20408;-88
2024/01/20 07:17:58;;;;;;;0.30;0.30;;;;;;;3.75;52.81;101889.91;4910550;29;20400;-88
2024/01/20 07:20:25;;;;;;;0.30;0.30;;;;;;;3.88;52.50;101897.00;4879127;29;20436;-90
2024/01/20 07:22:50;;;;;;;0.60;0.60;;;;;;;3.78;52.52;101901.97;4879528;29;20525;-88
2024/01/20 07:25:17;;;;;;;0.28;0.28;;;;;;;3.61;53.08;101909.13;4880763;29;20411;-89
2024/01/20 07:27:43;;;;;;;0.52;0.52;;;;;;;3.64;53.10;101898.47;4880752;29;20404;-88
2024/01/20 07:30:10;;;;;;;0.70;0.70;;;;;;;3.66;53.54;101924.59;4909463;29;20923;-86
2024/01/20 07:32:39;;;;;;;0.60;0.60;;;;;;;3.52;54.30;101927.22;4907898;29;20492;-87
2024/01/20 07:35:05;;;;;;;0.60;0.60;;;;;;;3.56;54.64;101934.78;4893716;29;20407;-87
2024/01/20 07:37:31;;;;;;;0.30;0.30;;;;;;;3.53;54.79;101929.75;4908208;29;20391;-86
2024/01/20 07:39:57;;;;;;;0.22;0.22;;;;;;;3.33;55.62;101938.81;4909117;29;20419;-88
2024/01/20 07:42:22;;;;;;;0.52;0.52;;;;;;;3.12;56.59;101954.03;4908506;29;20392;-88
2024/01/20 07:44:48;;;;;;;0.70;0.70;;;;;;;3.15;56.75;101955.63;4877570;29;20415;-88
2024/01/20 07:47:15;;;;;;;0.57;0.47;;;;;;;3.00;57.68;101963.47;4879077;29;20396;-89
2024/01/20 07:49:40;;;;;;;0.52;0.52;;;;;;;2.97;57.75;101962.78;4911022;29;20939;-88
2024/01/20 07:52:06;;;;;;;1.00;1.00;;;;;;;2.96;58.55;101963.75;4927568;29;20412;-88
2024/01/20 07:54:35;;;;;;;0.80;0.80;;;;;;;2.62;60.16;101971.75;4927514;29;20412;-87
2024/01/20 07:57:00;;;;;;;0.75;0.75;;;;;;;2.56;61.00;101984.38;4891374;29;20906;-89
2024/01/20 07:59:29;;;;;;;0.40;0.40;;;;;;;2.31;62.38;101990.13;4890724;29;20428;-88
2024/01/20 08:01:55;;;;;;;0.30;0.30;;;;;;;2.51;62.18;101989.00;4880287;29;20412;-88
2024/01/20 08:04:23;;;;;;;1.00;0.90;;;;;;;2.47;62.53;101996.19;4895101;29;20856;-92
2024/01/20 08:06:49;;;;;;;1.27;1.08;;;;;;;2.24;64.03;101998.28;4878562;29;20404;-90
2024/01/20 08:09:15;;;;;;;1.60;1.23;;;;;;;2.07;65.18;102006.22;4875742;29;20846;-92
2024/01/20 08:11:40;;;;;;;0.53;0.47;;;;;;;2.19;65.00;102007.31;4876262;29;20400;-89
2024/01/20 08:14:06;;;;;;;0.40;0.40;;;;;;;2.00;66.13;102007.47;4876323;29;20396;-89
2024/01/20 08:16:32;;;;;;;1.20;1.17;;;;;;;2.32;65.41;101995.25;4886529;29;20416;-92
2024/01/20 08:18:57;;;;;;;0.23;0.23;;;;;;;2.25;65.93;102012.22;4892708;29;20419;-88
2024/01/20 08:21:23;;;;;;;0.50;0.50;;;;;;;2.15;66.61;102039.81;4914097;29;20418;-90
2024/01/20 08:23:51;;;;;;;2.30;1.20;;;;;;;2.35;65.93;102031.72;4903307;29;20412;-91
2024/01/20 08:26:17;;;;;;;0.32;0.32;;;;;;;2.24;66.27;102040.16;4880981;29;20391;-90
2024/01/20 08:28:43;;;;;;;0.30;0.30;;;;;;;2.29;66.26;102037.31;4883616;29;20447;-91
2024/01/20 08:31:08;;;;;;;1.25;1.15;;;;;;;2.23;65.99;102035.00;4884209;29;20406;-90
2024/01/20 08:33:35;;;;;;;0.40;0.40;;;;;;;2.17;66.29;102038.81;4888699;29;20403;-91
2024/01/20 08:36:05;;;;;;;0.73;0.73;;;;;;;2.12;66.35;102058.28;4878335;29;20412;-91
2024/01/20 08:38:34;;;;;;;1.60;1.50;;;;;;;2.04;66.96;102058.69;4898913;29;20418;-92
2024/01/20 08:41:07;;;;;;;0.70;0.70;;;;;;;2.38;65.90;102060.34;4897739;29;20424;-91
2024/01/20 08:43:33;;;;;;;2.20;2.10;;;;;;;2.47;65.57;102072.09;4898442;29;20923;-91
2024/01/20 08:45:59;;;;;;;0.50;0.50;;;;;;;2.31;65.61;102059.00;4883573;29;20447;-91
2024/01/20 08:48:28;;;;;;;0.20;0.20;;;;;;;2.21;66.48;102074.31;4881471;29;20419;-90
2024/01/20 08:50:57;;;;;;;0.57;0.57;;;;;;;2.23;66.52;102069.88;4883523;29;20404;-91
2024/01/20 08:53:33;;;;;;;0.80;0.80;;;;;;;2.12;67.35;102068.75;4883550;29;20404;-89
2024/01/20 08:56:01;;;;;;;0.70;0.70;;;;;;;2.19;67.35;102070.94;4885080;29;20430;-89
2024/01/20 08:58:28;;;;;;;1.15;1.08;;;;;;;2.52;65.84;102082.28;4916820;29;20463;-90
2024/01/20 09:00:55;;;;;;;1.10;1.00;;;;;;;2.60;65.56;102086.19;4883638;29;20455;-90
2024/01/20 09:03:23;;;;;;;0.70;0.70;;;;;;;2.59;65.68;102089.75;4912610;29;20423;-90
2024/01/20 09:05:49;;;;;;;0.45;0.45;;;;;;;2.79;65.26;102090.41;4879948;29;20396;-90
2024/01/20 09:08:14;;;;;;;1.42;1.27;;;;;;;2.82;64.77;102092.84;4883251;29;20427;-90
2024/01/20 09:10:41;;;;;;;1.30;0.90;;;;;;;2.79;65.08;102093.00;4882842;29;20442;-90
2024/01/20 09:13:09;;;;;;;0.30;0.30;;;;;;;2.73;65.18;102085.50;4881828;29;20916;-91
2024/01/20 09:15:36;;;;;;;0.40;0.40;;;;;;;2.77;65.07;102090.47;4882311;29;20440;-89
2024/01/20 09:18:02;;;;;;;0.35;0.35;;;;;;;2.77;65.21;102098.34;4897744;29;20413;-90
2024/01/20 09:20:30;;;;;;;0.70;0.70;;;;;;;2.61;65.80;102106.22;4899306;29;20400;-91
2024/01/20 09:22:56;;;;;;;0.40;0.40;;;;;;;2.76;65.53;102101.91;4883220;29;20408;-91
2024/01/20 09:25:21;;;;;;;0.50;0.50;;;;;;;2.77;65.50;102115.81;4883657;29;20483;-92
2024/01/20 09:27:50;;;;;;;0.30;0.30;;;;;;;2.73;65.49;102112.53;4881832;29;20407;-93
2024/01/20 09:30:17;;;;;;;0.28;0.28;;;;;;;2.87;65.08;102111.78;4881766;29;20430;-90
2024/01/20 09:32:45;;;;;;;0.30;0.30;;;;;;;2.68;65.31;102115.41;4880264;29;20911;-91
2024/01/20 09:35:14;;;;;;;0.50;0.50;;;;;;;2.70;65.49;102136.25;4879583;29;20423;-91
2024/01/20 09:37:39;;;;;;;0.28;0.22;;;;;;;2.77;65.30;102124.53;4881503;29;20407;-90
2024/01/20 09:40:10;;;;;;;3.37;3.17;;;;;;;2.78;65.06;102128.00;4911062;29;20408;-88
2024/01/20 09:42:36;;;;;;;2.85;2.45;;;;;;;2.80;65.15;102132.22;4877049;29;20399;-89
2024/01/20 09:45:02;;;;;;;7.37;3.37;;;;;;;2.74;65.49;102150.03;4877460;29;20485;-90
2024/01/20 09:47:28;;;;;;;18.85;4.70;;;;;;;2.62;65.75;102141.91;4878124;29;20407;-89
2024/01/20 09:49:54;;;;;;;1.65;1.55;;;;;;;2.78;65.57;102136.69;4879650;29;20423;-91
2024/01/20 09:52:29;;;;;;;0.93;0.93;;;;;;;2.85;64.83;102153.75;4863485;29;20412;-89
2024/01/20 09:55:00;;;;;;;0.20;0.20;;;;;;;2.78;65.02;102148.97;4878517;29;20453;-91
2024/01/20 09:57:27;;;;;;;0.20;0.20;;;;;;;2.83;65.01;102147.78;4880722;29;20392;-92
2024/01/20 09:59:57;;;;;;;0.25;0.25;;;;;;;2.95;64.60;102163.72;4884788;29;20622;-90
2024/01/20 10:02:26;;;;;;;1.10;0.70;;;;;;;2.71;65.41;102155.44;4887305;29;20398;-91
2024/01/20 10:04:55;;;;;;;0.28;0.28;;;;;;;2.90;64.65;102161.38;4890909;29;20402;-87
2024/01/20 10:07:33;;;;;;;0.55;0.55;;;;;;;2.88;64.83;102160.59;4883390;29;20403;-93
2024/01/20 10:09:59;;;;;;;0.40;0.40;;;;;;;2.58;65.69;102169.19;4879600;29;20424;-89
2024/01/20 10:12:24;;;;;;;0.60;0.60;;;;;;;2.87;64.90;102157.13;4901604;29;20400;-88
2024/01/20 10:14:51;;;;;;;1.10;0.70;;;;;;;2.75;65.35;102170.91;4880609;29;20972;-88
2024/01/20 10:17:16;;;;;;;0.30;0.30;;;;;;;2.74;65.70;102174.47;4881882;29;20407;-88
2024/01/20 10:19:43;;;;;;;0.57;0.57;;;;;;;2.80;65.60;102178.53;4887875;29;20412;-89
2024/01/20 10:22:10;;;;;;;0.20;0.20;;;;;;;2.58;66.04;102171.81;4897787;29;20475;-88
2024/01/20 10:24:46;;;;;;;0.30;0.30;;;;;;;2.65;65.94;102172.34;4888087;29;20408;-90
2024/01/20 10:27:23;;;;;;;0.30;0.30;;;;;;;2.92;65.64;102184.84;4901670;29;20401;-90
2024/01/20 10:29:49;;;;;;;0.50;0.40;;;;;;;2.85;65.14;102193.03;4883814;29;20416;-87
2024/01/20 10:32:16;;;;;;;0.52;0.52;;;;;;;2.79;65.30;102196.00;4893619;29;20477;-88
2024/01/20 10:34:44;;;;;;;0.10;0.10;;;;;;;2.90;65.20;102211.16;4891353;29;20921;-89
2024/01/20 10:37:12;;;;;;;0.20;0.20;;;;;;;2.70;65.20;102216.59;4895839;29;20719;-89
2024/01/20 10:39:44;;;;;;;0.30;0.30;;;;;;;2.53;65.36;102196.56;4897574;29;20431;-88
2024/01/20 10:42:15;;;;;;;0.20;0.20;;;;;;;2.48;65.99;102221.19;4904797;29;20973;-88
2024/01/20 10:44:59;;;;;;;0.20;0.20;;;;;;;2.52;65.34;102198.34;4893314;29;20405;-88
2024/01/20 10:47:40;;;;;;;1.00;0.70;;;;;;;2.71;64.89;102218.28;4885600;29;20463;-88
2024/01/20 10:50:08;;;;;;;1.05;1.00;;;;;;;2.72;64.67;102223.44;4902192;29;20972;-89
2024/01/20 10:52:37;;;;;;;0.60;0.60;;;;;;;2.83;64.48;102223.72;4875191;29;20402;-90
2024/01/20 10:55:05;;;;;;;0.40;0.40;;;;;;;2.60;64.78;102237.19;4893658;29;20390;-89
2024/01/20 10:57:32;;;;;;;0.20;0.20;;;;;;;2.69;64.92;102234.09;4902038;29;20497;-93
2024/01/20 10:59:59;;;;;;;0.20;0.20;;;;;;;2.71;64.60;102237.47;4898155;29;20490;-87
2024/01/20 11:02:26;;;;;;;0.22;0.22;;;;;;;2.64;65.00;102242.16;4878761;29;20403;-87
2024/01/20 11:04:52;;;;;;;0.20;0.20;;;;;;;2.51;65.43;102256.00;4917947;29;20435;-86
2024/01/20 11:07:23;;;;;;;0.45;0.45;;;;;;;2.39;65.94;102247.81;4885980;29;21963;-94
2024/01/20 11:10:22;;;;;;;0.20;0.20;;;;;;;2.38;65.98;102264.47;4903191;29;20927;-95
2024/01/20 11:12:58;;;;;;;0.32;0.32;;;;;;;2.47;65.48;102231.75;4875648;29;20408;-92
2024/01/20 11:15:28;;;;;;;0.40;0.40;;;;;;;2.71;64.96;102261.03;4913815;29;20779;-86
2024/01/20 11:17:53;;;;;;;0.15;0.15;;;;;;;2.70;65.07;102254.09;4917859;29;20432;-92
2024/01/20 11:20:27;;;;;;;0.20;0.20;;;;;;;2.74;64.91;102271.34;4914249;29;20915;-92
2024/01/20 11:22:57;;;;;;;0.10;0.10;;;;;;;2.69;64.88;102252.41;4878223;29;20542;-94
2024/01/20 11:25:49;;;;;;;0.93;0.68;;;;;;;2.73;65.06;102246.06;4909097;29;20407;-95
2024/01/20 11:28:31;;;;;;;0.35;0.35;;;;;;;2.86;64.67;102268.09;4879961;29;20416;-87
2024/01/20 11:30:58;;;;;;;0.10;0.10;;;;;;;2.94;64.09;102291.25;4877522;29;20411;-86
2024/01/20 11:33:29;;;;;;;0.17;0.17;;;;;;;2.57;64.96;102277.44;4877303;29;20411;-93